Time;durP1;ratioP1;P1;durP2;ratioP2;P2;SDS_P1;SDS_P2;PMS_P1;PMS_P2;Temp;Humidity;BMP_temperature;BMP_pressure;BME280_temperature;BME280_humidity;BME280_pressure;Samples;Min_cycle;Max_cycle;Signal;HPM_P1;HPM_P2
2023/04/19 00:01:00;;;;;;;38.43;26.77;;;11.20;99.90;;;;;;7282185;19;20186;-78
2023/04/19 00:03:29;;;;;;;38.40;25.77;;;11.20;99.90;;;;;;7284910;19;20177;-78
2023/04/19 00:05:57;;;;;;;38.07;26.13;;;11.10;99.90;;;;;;7290005;19;20252;-78
2023/04/19 00:08:24;;;;;;;36.47;25.50;;;11.10;99.90;;;;;;7289366;19;20219;-78
2023/04/19 00:10:50;;;;;;;40.17;26.50;;;11.10;99.90;;;;;;7288970;19;20193;-79
2023/04/19 00:13:16;;;;;;;38.83;26.50;;;11.00;99.90;;;;;;7289896;19;20182;-78
2023/04/19 00:15:41;;;;;;;38.00;26.13;;;11.00;99.90;;;;;;7311400;19;20195;-79
2023/04/19 00:18:07;;;;;;;37.43;26.00;;;10.90;99.90;;;;;;7289636;19;20285;-78
2023/04/19 00:20:33;;;;;;;38.20;26.83;;;10.90;99.90;;;;;;7288935;19;20239;-78
2023/04/19 00:22:59;;;;;;;37.57;25.80;;;10.90;99.90;;;;;;7288722;19;20181;-79
2023/04/19 00:25:24;;;;;;;39.17;26.37;;;10.90;99.90;;;;;;7287999;19;20189;-78
2023/04/19 00:27:50;;;;;;;38.20;26.30;;;10.90;99.90;;;;;;7288771;19;20180;-79
2023/04/19 00:30:16;;;;;;;37.33;25.03;;;10.80;99.90;;;;;;7289954;19;20205;-78
2023/04/19 00:32:41;;;;;;;37.33;26.33;;;10.90;99.90;;;;;;7309965;19;20210;-79
2023/04/19 00:35:07;;;;;;;36.47;25.47;;;10.90;99.90;;;;;;7289833;19;20201;-78
2023/04/19 00:37:33;;;;;;;37.20;25.33;;;10.80;99.90;;;;;;7288733;19;20909;-78
2023/04/19 00:39:59;;;;;;;36.63;25.37;;;10.90;99.90;;;;;;7287389;19;20524;-79
2023/04/19 00:42:28;;;;;;;37.80;25.37;;;10.80;99.90;;;;;;7288551;19;20191;-79
2023/04/19 00:44:53;;;;;;;35.77;24.53;;;10.80;99.90;;;;;;7287043;19;20198;-78
2023/04/19 00:47:19;;;;;;;35.90;25.57;;;10.80;99.90;;;;;;7287782;19;20189;-79
2023/04/19 00:49:45;;;;;;;37.60;24.67;;;10.80;99.90;;;;;;7288133;19;20181;-78
2023/04/19 00:52:11;;;;;;;37.50;25.87;;;10.80;99.90;;;;;;7310347;19;20207;-78
2023/04/19 00:54:39;;;;;;;34.70;24.90;;;10.80;99.90;;;;;;7288624;19;20219;-78
2023/04/19 00:57:05;;;;;;;34.50;23.70;;;10.80;99.90;;;;;;7287922;19;20913;-78
2023/04/19 00:59:33;;;;;;;37.37;25.67;;;10.80;99.90;;;;;;7287833;19;20188;-78
2023/04/19 01:01:59;;;;;;;35.63;25.40;;;10.80;99.90;;;;;;7287567;19;20196;-78
2023/04/19 01:04:27;;;;;;;36.97;25.53;;;10.80;99.90;;;;;;7287938;19;20185;-79
2023/04/19 01:06:53;;;;;;;37.10;25.33;;;10.80;99.90;;;;;;7288036;19;20192;-78
2023/04/19 01:09:19;;;;;;;39.57;25.97;;;10.80;99.90;;;;;;7287632;19;20195;-78
2023/04/19 01:11:45;;;;;;;38.13;26.20;;;10.80;99.90;;;;;;7294215;19;20180;-78
2023/04/19 01:14:10;;;;;;;37.33;25.70;;;10.70;99.90;;;;;;7311272;19;20282;-79
2023/04/19 01:16:37;;;;;;;38.67;26.23;;;10.70;99.90;;;;;;7287319;19;20197;-78
2023/04/19 01:19:03;;;;;;;36.90;24.93;;;10.70;99.90;;;;;;7287627;19;21622;-78
2023/04/19 01:21:29;;;;;;;34.83;24.67;;;10.80;99.90;;;;;;7287358;19;20185;-78
2023/04/19 01:23:55;;;;;;;36.03;24.53;;;10.90;99.90;;;;;;7286285;19;20192;-78
2023/04/19 01:26:21;;;;;;;35.73;25.23;;;10.90;99.90;;;;;;7287276;19;20184;-78
2023/04/19 01:28:47;;;;;;;36.97;25.83;;;10.90;99.90;;;;;;7287686;19;20188;-78
2023/04/19 01:31:12;;;;;;;38.93;25.70;;;10.80;99.90;;;;;;7308675;19;20193;-78
2023/04/19 01:33:38;;;;;;;38.83;26.50;;;10.90;99.90;;;;;;7286668;19;20244;-78
2023/04/19 01:36:08;;;;;;;36.33;24.60;;;10.70;99.90;;;;;;7288788;19;20180;-78
2023/04/19 01:38:34;;;;;;;37.97;25.37;;;10.70;99.90;;;;;;7286279;19;20221;-78
2023/04/19 01:41:00;;;;;;;37.10;25.63;;;10.70;99.90;;;;;;7285919;19;20644;-78
2023/04/19 01:43:26;;;;;;;37.47;24.87;;;10.60;99.90;;;;;;7284678;19;20205;-78
2023/04/19 01:45:51;;;;;;;37.10;25.53;;;10.60;99.90;;;;;;7287983;19;20222;-79
2023/04/19 01:48:18;;;;;;;39.90;25.93;;;10.60;99.90;;;;;;7286029;19;20656;-78
2023/04/19 01:50:44;;;;;;;36.53;24.93;;;10.60;99.90;;;;;;7304158;19;20185;-78
2023/04/19 01:53:09;;;;;;;37.37;25.27;;;10.60;99.90;;;;;;7297213;19;20549;-79
2023/04/19 01:55:35;;;;;;;39.50;26.13;;;10.70;99.90;;;;;;7287116;19;20873;-78
2023/04/19 01:58:01;;;;;;;42.43;26.37;;;10.60;99.90;;;;;;7286744;19;20248;-79
2023/04/19 02:00:27;;;;;;;38.83;26.10;;;10.50;99.90;;;;;;7285115;19;20197;-78
2023/04/19 02:02:53;;;;;;;39.77;26.93;;;10.50;99.90;;;;;;7285339;19;20312;-78
2023/04/19 02:05:20;;;;;;;40.90;27.77;;;10.40;99.90;;;;;;7283808;19;20195;-78
2023/04/19 02:07:46;;;;;;;38.43;25.90;;;10.50;99.90;;;;;;7286351;19;20196;-78
2023/04/19 02:10:11;;;;;;;44.53;27.93;;;10.50;99.90;;;;;;7308155;19;20216;-77
2023/04/19 02:12:37;;;;;;;38.90;26.03;;;10.40;99.90;;;;;;7285711;19;20185;-78
2023/04/19 02:15:03;;;;;;;42.27;28.03;;;10.40;99.90;;;;;;7286123;19;20197;-77
2023/04/19 02:17:29;;;;;;;41.53;27.53;;;10.40;99.90;;;;;;7284519;19;20192;-78
2023/04/19 02:19:56;;;;;;;40.40;27.30;;;10.50;99.90;;;;;;7284438;19;20193;-78
2023/04/19 02:22:22;;;;;;;43.27;27.47;;;10.40;99.90;;;;;;7284681;19;20177;-78
2023/04/19 02:24:49;;;;;;;41.90;27.47;;;10.40;99.90;;;;;;7284694;19;20196;-78
2023/04/19 02:27:15;;;;;;;41.43;28.73;;;10.40;99.90;;;;;;7287332;19;20216;-78
2023/04/19 02:29:41;;;;;;;39.83;27.00;;;10.50;99.90;;;;;;7307458;19;20192;-78
2023/04/19 02:32:07;;;;;;;40.97;27.63;;;10.40;99.90;;;;;;7284515;19;20185;-78
2023/04/19 02:34:33;;;;;;;41.33;27.13;;;10.50;99.90;;;;;;7284681;19;21072;-78
2023/04/19 02:36:59;;;;;;;42.00;28.37;;;10.40;99.90;;;;;;7286004;19;20198;-78
2023/04/19 02:39:27;;;;;;;39.63;26.57;;;10.40;99.90;;;;;;7283634;19;20192;-78
2023/04/19 02:41:54;;;;;;;38.23;26.30;;;10.60;99.90;;;;;;7284282;19;20821;-78
2023/04/19 02:44:20;;;;;;;38.67;27.03;;;10.60;99.90;;;;;;7284036;19;20193;-78
2023/04/19 02:46:49;;;;;;;40.27;26.57;;;10.60;99.90;;;;;;7285777;19;20187;-78
2023/04/19 02:49:16;;;;;;;37.00;26.27;;;10.70;99.90;;;;;;7293064;19;20191;-78
2023/04/19 02:51:42;;;;;;;37.87;26.00;;;10.70;99.90;;;;;;7305859;19;20225;-79
2023/04/19 02:54:10;;;;;;;35.80;25.03;;;10.80;99.90;;;;;;7283783;19;20189;-78
2023/04/19 02:56:36;;;;;;;37.93;25.27;;;10.80;99.90;;;;;;7283049;19;20211;-79
2023/04/19 02:59:02;;;;;;;38.20;25.13;;;10.90;99.90;;;;;;7284128;19;20533;-78
2023/04/19 03:01:30;;;;;;;36.07;25.10;;;11.00;99.90;;;;;;7282573;19;20209;-78
2023/04/19 03:03:56;;;;;;;34.30;24.67;;;11.00;99.90;;;;;;7282457;19;20185;-78
2023/04/19 03:06:22;;;;;;;35.27;23.63;;;11.00;99.90;;;;;;7280546;19;20198;-78
2023/04/19 03:08:48;;;;;;;35.90;24.20;;;10.90;99.90;;;;;;7281767;19;20192;-78
2023/04/19 03:11:16;;;;;;;36.77;24.67;;;10.70;99.90;;;;;;7289612;19;20191;-78
2023/04/19 03:13:42;;;;;;;37.83;24.93;;;10.70;99.90;;;;;;7304167;19;20185;-79
2023/04/19 03:16:08;;;;;;;34.70;24.20;;;10.80;99.90;;;;;;7284321;19;20203;-78
2023/04/19 03:18:35;;;;;;;36.00;24.80;;;10.80;99.90;;;;;;7284719;19;20684;-78
2023/04/19 03:21:03;;;;;;;35.37;24.03;;;10.80;99.90;;;;;;7282473;19;20188;-78
2023/04/19 03:23:34;;;;;;;34.37;23.93;;;10.80;99.90;;;;;;7284135;19;20221;-78
2023/04/19 03:26:01;;;;;;;36.80;23.60;;;10.80;99.90;;;;;;7283403;19;20252;-78
2023/04/19 03:28:47;;;;;;;36.40;23.77;;;10.70;99.90;;;;;;7263159;19;20277;-78
2023/04/19 03:31:31;;;;;;;36.70;24.77;;;10.60;99.90;;;;;;7284778;19;20213;-78
2023/04/19 03:33:58;;;;;;;37.23;23.97;;;10.70;99.90;;;;;;7282182;19;20193;-78
2023/04/19 03:36:39;;;;;;;35.57;24.00;;;10.70;99.90;;;;;;7282540;19;20195;-79
2023/04/19 03:39:05;;;;;;;32.93;23.07;;;10.80;99.90;;;;;;7287618;19;20548;-78
2023/04/19 03:41:31;;;;;;;36.80;24.53;;;10.80;99.90;;;;;;7288843;19;20196;-78
2023/04/19 03:44:04;;;;;;;38.03;24.40;;;10.80;99.90;;;;;;7290349;19;20648;-78
2023/04/19 03:46:30;;;;;;;37.10;24.60;;;10.80;99.90;;;;;;7289618;19;20189;-79
2023/04/19 03:48:57;;;;;;;33.03;23.00;;;10.80;99.90;;;;;;7291119;19;20596;-78
2023/04/19 03:51:23;;;;;;;36.77;23.67;;;10.80;99.90;;;;;;7289219;19;20691;-78
2023/04/19 03:53:49;;;;;;;34.33;23.17;;;10.80;99.90;;;;;;7289064;19;20201;-78
2023/04/19 03:56:17;;;;;;;35.30;23.03;;;10.80;99.90;;;;;;7287858;19;20553;-78
2023/04/19 03:58:42;;;;;;;39.63;24.53;;;10.80;99.90;;;;;;7310964;19;20188;-78
2023/04/19 04:01:20;;;;;;;34.67;23.97;;;10.80;99.90;;;;;;7289768;19;20205;-78
2023/04/19 04:03:46;;;;;;;32.80;22.23;;;10.70;99.90;;;;;;7268916;19;20190;-78
2023/04/19 04:06:12;;;;;;;38.30;23.83;;;10.80;99.90;;;;;;7310257;19;20248;-78
2023/04/19 04:08:38;;;;;;;34.57;23.47;;;10.70;99.90;;;;;;7289142;19;20178;-78
2023/04/19 04:11:04;;;;;;;34.63;24.03;;;10.70;99.90;;;;;;7289595;19;20213;-78
2023/04/19 04:13:30;;;;;;;37.60;24.53;;;10.60;99.90;;;;;;7288979;19;20185;-78
2023/04/19 04:16:08;;;;;;;35.33;24.13;;;10.70;99.90;;;;;;7290104;19;20202;-79
2023/04/19 04:18:35;;;;;;;34.40;23.27;;;10.70;99.90;;;;;;7289389;19;20185;-78
2023/04/19 04:21:07;;;;;;;39.50;24.67;;;10.70;99.90;;;;;;7289511;19;20188;-78
2023/04/19 04:23:36;;;;;;;37.07;24.67;;;10.70;99.90;;;;;;7289277;19;20178;-79
2023/04/19 04:26:04;;;;;;;35.83;23.30;;;10.80;99.90;;;;;;7288526;19;20196;-78
2023/04/19 04:28:42;;;;;;;34.23;23.10;;;10.80;99.90;;;;;;7291149;19;20220;-78
2023/04/19 04:31:08;;;;;;;36.10;24.60;;;10.80;99.90;;;;;;7287140;19;20189;-78
2023/04/19 04:33:34;;;;;;;34.67;23.10;;;10.70;99.90;;;;;;7287924;19;20617;-78
2023/04/19 04:36:01;;;;;;;37.10;23.63;;;10.80;99.90;;;;;;7288014;19;20212;-79
2023/04/19 04:38:31;;;;;;;38.40;23.33;;;10.70;99.90;;;;;;7287520;19;20544;-78
2023/04/19 04:40:58;;;;;;;36.13;23.57;;;10.60;99.90;;;;;;7287617;19;20192;-78
2023/04/19 04:43:27;;;;;;;36.40;24.13;;;10.60;99.90;;;;;;7289463;19;20185;-78
2023/04/19 04:45:56;;;;;;;34.83;24.07;;;10.60;99.90;;;;;;7287056;19;20195;-79
2023/04/19 04:48:23;;;;;;;34.43;23.87;;;10.70;99.90;;;;;;7287799;19;20200;-79
2023/04/19 04:50:49;;;;;;;35.27;24.23;;;10.70;99.90;;;;;;7287268;19;20536;-78
2023/04/19 04:53:14;;;;;;;36.40;24.67;;;10.60;99.90;;;;;;7306354;19;20193;-78
2023/04/19 04:55:43;;;;;;;34.50;23.87;;;10.60;99.90;;;;;;7309919;19;20196;-79
2023/04/19 04:58:08;;;;;;;38.77;25.03;;;10.70;99.90;;;;;;7286078;19;20186;-78
2023/04/19 05:00:53;;;;;;;37.00;24.47;;;10.70;99.90;;;;;;7184605;19;2004846;-78
2023/04/19 05:03:20;;;;;;;35.53;23.67;;;10.80;99.90;;;;;;7286583;19;20211;-77
2023/04/19 05:05:52;;;;;;;36.80;23.97;;;10.80;99.90;;;;;;7286872;19;20253;-78
2023/04/19 05:08:18;;;;;;;35.47;24.13;;;10.80;99.90;;;;;;7287550;19;20195;-77
2023/04/19 05:10:44;;;;;;;35.37;23.20;;;10.70;99.90;;;;;;7310222;19;20196;-77
2023/04/19 05:13:11;;;;;;;36.40;23.53;;;10.60;99.90;;;;;;7286023;19;20198;-78
2023/04/19 05:15:38;;;;;;;38.33;24.73;;;10.60;99.90;;;;;;7287123;19;20200;-78
2023/04/19 05:18:05;;;;;;;37.83;24.23;;;10.60;99.90;;;;;;7288176;19;20224;-78
2023/04/19 05:20:32;;;;;;;34.60;23.90;;;10.60;99.90;;;;;;7287127;19;20197;-79
2023/04/19 05:23:18;;;;;;;35.23;22.97;;;10.70;99.90;;;;;;7264744;19;20192;-79
2023/04/19 05:25:44;;;;;;;36.60;23.20;;;10.70;99.90;;;;;;7308981;19;20243;-79
2023/04/19 05:28:10;;;;;;;36.40;23.70;;;10.70;99.90;;;;;;7287873;19;20656;-79
2023/04/19 05:30:44;;;;;;;35.47;23.10;;;10.80;99.90;;;;;;7286360;19;20189;-77
2023/04/19 05:33:10;;;;;;;33.83;22.60;;;11.20;99.90;;;;;;7286381;19;20181;-79
2023/04/19 05:35:37;;;;;;;35.83;22.77;;;11.50;99.90;;;;;;7286552;19;20219;-80
2023/04/19 05:38:03;;;;;;;32.43;21.80;;;12.00;99.90;;;;;;7285964;19;20184;-78
2023/04/19 05:40:29;;;;;;;33.47;22.33;;;12.30;99.90;;;;;;7287432;19;20689;-79
2023/04/19 05:42:54;;;;;;;31.73;21.67;;;12.70;99.90;;;;;;7287948;19;20194;-79
2023/04/19 05:45:21;;;;;;;30.80;20.87;;;13.10;99.90;;;;;;7286862;19;20395;-79
2023/04/19 05:47:46;;;;;;;30.63;20.17;;;13.30;99.90;;;;;;7286901;19;20190;-79
2023/04/19 05:50:31;;;;;;;30.40;19.93;;;13.40;99.90;;;;;;7288343;19;20208;-79
2023/04/19 05:53:21;;;;;;;28.63;19.10;;;13.30;99.90;;;;;;7183876;19;2004985;-79
2023/04/19 05:55:49;;;;;;;29.03;19.03;;;13.50;99.90;;;;;;7285860;19;20198;-79
2023/04/19 05:58:15;;;;;;;29.73;20.10;;;13.80;99.90;;;;;;7300545;19;20764;-80
2023/04/19 06:00:41;;;;;;;27.50;18.83;;;14.00;99.90;;;;;;7300836;19;20220;-80
2023/04/19 06:03:11;;;;;;;28.27;19.20;;;14.00;99.90;;;;;;7287068;19;20211;-80
2023/04/19 06:05:39;;;;;;;27.47;19.40;;;14.00;99.90;;;;;;7285289;19;20185;-80
2023/04/19 06:08:05;;;;;;;30.37;19.13;;;14.00;99.90;;;;;;7285389;19;20217;-79
2023/04/19 06:10:31;;;;;;;30.17;19.23;;;13.80;99.90;;;;;;7286674;19;20186;-80
2023/04/19 06:12:57;;;;;;;27.83;18.67;;;14.00;99.90;;;;;;7284968;19;20265;-79
2023/04/19 06:15:24;;;;;;;27.37;18.20;;;14.30;99.90;;;;;;7285136;19;20193;-79
2023/04/19 06:17:51;;;;;;;26.87;18.43;;;14.40;99.90;;;;;;7284568;19;20188;-79
2023/04/19 06:20:17;;;;;;;27.13;18.30;;;14.40;99.90;;;;;;7285054;19;20182;-79
2023/04/19 06:22:44;;;;;;;27.30;17.30;;;14.70;99.90;;;;;;7308046;19;20220;-79
2023/04/19 06:25:10;;;;;;;29.60;17.43;;;15.00;99.90;;;;;;7286272;19;20246;-80
2023/04/19 06:27:36;;;;;;;25.30;17.03;;;15.00;99.90;;;;;;7285769;19;20534;-79
2023/04/19 06:30:02;;;;;;;25.50;17.20;;;15.00;99.90;;;;;;7285795;19;20207;-79
2023/04/19 06:32:28;;;;;;;24.80;17.13;;;15.30;99.90;;;;;;7284420;19;20197;-79
2023/04/19 06:34:54;;;;;;;29.03;17.10;;;15.20;99.90;;;;;;7284176;19;20676;-79
2023/04/19 06:37:19;;;;;;;26.73;16.90;;;15.70;99.90;;;;;;7283502;19;20260;-79
2023/04/19 06:39:45;;;;;;;26.80;16.97;;;16.10;99.90;;;;;;7301876;19;20181;-80
2023/04/19 06:42:11;;;;;;;25.57;16.83;;;16.30;99.90;;;;;;7298881;19;20670;-80
2023/04/19 06:44:37;;;;;;;25.93;16.37;;;16.90;99.90;;;;;;7284587;19;20187;-78
2023/04/19 06:47:02;;;;;;;24.07;17.17;;;16.80;99.90;;;;;;7283996;19;20195;-77
2023/04/19 06:49:28;;;;;;;25.20;16.40;;;17.20;99.90;;;;;;7284311;19;20216;-78
2023/04/19 06:51:54;;;;;;;25.60;17.10;;;17.20;99.90;;;;;;7284521;19;20482;-78
2023/04/19 06:54:20;;;;;;;26.83;16.77;;;17.30;99.90;;;;;;7284425;19;20917;-78
2023/04/19 06:56:47;;;;;;;25.27;17.40;;;17.10;99.90;;;;;;7299954;19;20186;-78
2023/04/19 06:59:18;;;;;;;24.20;16.47;;;17.30;99.90;;;;;;7306174;19;20258;-79
2023/04/19 07:01:45;;;;;;;25.47;16.37;;;17.70;99.90;;;;;;7284357;19;20556;-79
2023/04/19 07:04:11;;;;;;;23.23;16.60;;;17.40;99.90;;;;;;7284676;19;20200;-78
2023/04/19 07:06:37;;;;;;;22.87;15.83;;;17.80;99.90;;;;;;7283386;19;20187;-79
2023/04/19 07:09:04;;;;;;;20.97;15.40;;;18.40;99.90;;;;;;7284754;19;20188;-79
2023/04/19 07:11:31;;;;;;;22.23;16.13;;;19.00;99.90;;;;;;7284790;19;20189;-79
2023/04/19 07:13:57;;;;;;;25.40;16.20;;;18.80;99.90;;;;;;7290140;19;20192;-79
2023/04/19 07:16:22;;;;;;;23.00;15.57;;;19.30;99.90;;;;;;7291914;19;20188;-78
2023/04/19 07:18:48;;;;;;;21.57;14.43;;;19.40;99.90;;;;;;7292214;19;20196;-78
2023/04/19 07:21:14;;;;;;;23.87;15.07;;;19.30;99.90;;;;;;7313299;19;20185;-78
2023/04/19 07:23:40;;;;;;;21.93;14.70;;;19.00;99.90;;;;;;7290750;19;20272;-79
2023/04/19 07:26:06;;;;;;;21.17;14.90;;;18.50;99.90;;;;;;7290226;19;20182;-78
2023/04/19 07:28:32;;;;;;;22.37;14.53;;;18.80;99.90;;;;;;7290808;19;20185;-78
2023/04/19 07:30:59;;;;;;;22.23;14.53;;;19.20;99.90;;;;;;7290842;19;20195;-78
2023/04/19 07:33:25;;;;;;;21.77;15.40;;;19.90;99.90;;;;;;7289659;19;20663;-78
2023/04/19 07:35:51;;;;;;;21.13;13.70;;;19.80;99.90;;;;;;7290584;19;20196;-79
2023/04/19 07:38:18;;;;;;;17.90;12.77;;;19.60;99.90;;;;;;7291830;19;20189;-78
2023/04/19 07:40:43;;;;;;;21.13;13.30;;;19.80;99.90;;;;;;7312889;19;20616;-80
2023/04/19 07:43:09;;;;;;;21.57;13.63;;;19.80;99.90;;;;;;7289615;19;20186;-78
2023/04/19 07:45:35;;;;;;;17.70;12.63;;;20.00;99.90;;;;;;7291516;19;20663;-79
2023/04/19 07:48:01;;;;;;;18.47;13.57;;;20.90;99.90;;;;;;7290174;19;20195;-79
2023/04/19 07:50:26;;;;;;;19.23;13.10;;;20.80;99.90;;;;;;7289063;19;20193;-79
2023/04/19 07:52:52;;;;;;;16.60;12.37;;;20.60;99.90;;;;;;7290177;19;20636;-79
2023/04/19 07:55:19;;;;;;;18.50;12.47;;;19.80;99.90;;;;;;7289486;19;20194;-79
2023/04/19 07:57:47;;;;;;;18.97;12.70;;;18.90;99.90;;;;;;7311030;19;20256;-79
2023/04/19 08:00:17;;;;;;;17.43;12.77;;;18.00;99.90;;;;;;7291177;19;20548;-78
2023/04/19 08:02:46;;;;;;;19.40;12.37;;;17.80;99.90;;;;;;7291761;19;20187;-79
2023/04/19 08:05:13;;;;;;;18.80;12.30;;;18.60;99.90;;;;;;7288825;19;20185;-79
2023/04/19 08:07:39;;;;;;;17.33;12.47;;;18.40;99.90;;;;;;7288475;19;20184;-79
2023/04/19 08:10:06;;;;;;;16.80;12.00;;;18.80;99.90;;;;;;7290839;19;20188;-79
2023/04/19 08:12:32;;;;;;;17.70;11.03;;;19.50;99.90;;;;;;7290759;19;20185;-80
2023/04/19 08:14:57;;;;;;;19.27;12.00;;;19.70;99.90;;;;;;7289109;19;20197;-79
2023/04/19 08:17:23;;;;;;;15.40;11.50;;;19.00;99.90;;;;;;7289142;19;20272;-79
2023/04/19 08:19:49;;;;;;;16.90;11.47;;;19.00;99.90;;;;;;7288537;19;20188;-79
2023/04/19 08:22:16;;;;;;;16.67;11.87;;;19.00;99.90;;;;;;7310582;19;20663;-79
2023/04/19 08:24:42;;;;;;;14.97;10.80;;;19.40;99.90;;;;;;7287223;19;20188;-79
2023/04/19 08:27:09;;;;;;;17.53;11.60;;;19.20;99.90;;;;;;7288972;19;20678;-79
2023/04/19 08:29:35;;;;;;;17.87;11.60;;;19.70;99.90;;;;;;7289946;19;20192;-78
2023/04/19 08:32:00;;;;;;;19.30;11.70;;;19.50;99.90;;;;;;7288897;19;20216;-79
2023/04/19 08:34:27;;;;;;;20.17;12.23;;;19.70;99.90;;;;;;7289502;19;20189;-79
2023/04/19 08:36:52;;;;;;;16.40;10.73;;;20.10;99.90;;;;;;7289151;19;20232;-79
2023/04/19 08:39:18;;;;;;;14.97;10.50;;;21.10;99.90;;;;;;7288186;19;20190;-79
2023/04/19 08:41:44;;;;;;;15.30;10.17;;;22.30;99.90;;;;;;7310851;19;20590;-79
2023/04/19 08:44:15;;;;;;;14.77;10.13;;;23.00;99.90;;;;;;7289168;19;20191;-79
2023/04/19 08:46:42;;;;;;;18.17;10.37;;;21.90;99.90;;;;;;7287819;19;20190;-78
2023/04/19 08:49:09;;;;;;;17.33;10.90;;;21.00;99.90;;;;;;7288219;19;20976;-78
2023/04/19 08:51:37;;;;;;;18.20;11.03;;;20.80;99.90;;;;;;7287261;19;20190;-78
2023/04/19 08:54:07;;;;;;;16.03;10.30;;;21.10;99.90;;;;;;7287551;19;20538;-78
2023/04/19 08:56:33;;;;;;;14.13;9.73;;;21.30;99.90;;;;;;7287435;19;20627;-78
2023/04/19 08:58:58;;;;;;;14.80;10.20;;;21.90;99.90;;;;;;7288166;19;20193;-79
2023/04/19 09:01:24;;;;;;;14.93;10.20;;;22.70;99.90;;;;;;7286636;19;20199;-78
2023/04/19 09:03:50;;;;;;;16.63;10.37;;;22.70;99.90;;;;;;7288061;19;20187;-78
2023/04/19 09:06:15;;;;;;;15.27;10.43;;;23.00;99.90;;;;;;7304461;19;20196;-78
2023/04/19 09:08:41;;;;;;;13.43;9.07;;;23.40;99.90;;;;;;7297453;19;20184;-77
2023/04/19 09:11:07;;;;;;;13.27;9.00;;;23.80;99.90;;;;;;7288369;19;20182;-78
2023/04/19 09:13:37;;;;;;;13.03;9.27;;;24.20;99.90;;;;;;7287075;19;20197;-78
2023/04/19 09:16:04;;;;;;;16.63;9.00;;;23.90;99.90;;;;;;7288056;19;20721;-78
2023/04/19 09:18:30;;;;;;;15.13;9.83;;;23.10;99.90;;;;;;7288246;19;20197;-78
2023/04/19 09:20:59;;;;;;;15.27;9.30;;;22.90;99.90;;;;;;7287421;19;20595;-78
2023/04/19 09:23:26;;;;;;;15.30;9.80;;;21.90;99.90;;;;;;7286290;19;20204;-78
2023/04/19 09:26:03;;;;;;;15.57;9.90;;;21.40;99.90;;;;;;7287516;19;20691;-78
2023/04/19 09:28:30;;;;;;;15.83;10.50;;;21.20;99.90;;;;;;7287763;19;20218;-78
2023/04/19 09:30:56;;;;;;;14.63;9.80;;;21.20;99.90;;;;;;7287339;19;20287;-78
2023/04/19 09:33:35;;;;;;;13.60;9.53;;;20.80;99.90;;;;;;7285682;19;20750;-78
2023/04/19 09:36:01;;;;;;;12.70;8.37;;;20.40;99.90;;;;;;7282206;19;20200;-78
2023/04/19 09:38:27;;;;;;;12.80;8.00;;;19.90;99.90;;;;;;7287070;19;20219;-78
2023/04/19 09:41:06;;;;;;;14.03;8.23;;;19.60;99.90;;;;;;7285623;19;20200;-78
2023/04/19 09:43:32;;;;;;;14.47;8.37;;;19.60;99.90;;;;;;7286408;19;21772;-79
2023/04/19 09:45:58;;;;;;;11.77;7.87;;;19.30;99.90;;;;;;7284394;19;20195;-79
2023/04/19 09:48:23;;;;;;;13.43;7.90;;;20.40;99.90;;;;;;7285831;19;20260;-78
2023/04/19 09:51:00;;;;;;;11.30;7.60;;;20.30;99.90;;;;;;7285191;19;20220;-78
2023/04/19 09:53:29;;;;;;;12.07;7.80;;;19.70;99.90;;;;;;7284723;19;20187;-78
2023/04/19 09:55:55;;;;;;;13.87;8.03;;;19.90;99.90;;;;;;7285185;19;20196;-78
2023/04/19 09:58:21;;;;;;;12.10;8.03;;;21.10;99.90;;;;;;7284686;19;20645;-78
2023/04/19 10:00:48;;;;;;;13.73;7.40;;;22.20;99.90;;;;;;7293509;19;20534;-78
2023/04/19 10:03:18;;;;;;;11.87;7.57;;;21.60;99.90;;;;;;7307372;19;20189;-78
2023/04/19 10:05:45;;;;;;;11.87;8.07;;;21.20;99.90;;;;;;7285606;19;20209;-78
2023/04/19 10:08:12;;;;;;;12.37;8.47;;;21.10;99.90;;;;;;7285749;19;20283;-78
2023/04/19 10:10:41;;;;;;;12.80;8.37;;;21.60;99.90;;;;;;7286565;19;21001;-78
2023/04/19 10:13:11;;;;;;;14.70;9.93;;;21.40;99.90;;;;;;7284727;19;20192;-78
2023/04/19 10:15:37;;;;;;;14.57;10.07;;;20.70;99.90;;;;;;7285520;19;20207;-78
2023/04/19 10:18:05;;;;;;;14.93;10.77;;;20.70;99.90;;;;;;7286198;19;20198;-78
2023/04/19 10:20:55;;;;;;;13.97;10.13;;;20.20;99.90;;;;;;7285867;19;20208;-78
2023/04/19 10:23:22;;;;;;;17.63;11.47;;;19.40;99.90;;;;;;7182019;19;2004581;-78
2023/04/19 10:25:48;;;;;;;14.30;11.13;;;18.50;99.90;;;;;;7286782;19;20702;-78
2023/04/19 10:28:15;;;;;;;20.10;11.50;;;18.10;99.90;;;;;;7307084;19;20248;-78
2023/04/19 10:31:02;;;;;;;16.33;11.83;;;17.90;99.90;;;;;;7285175;19;20212;-78
2023/04/19 10:33:33;;;;;;;14.90;9.70;;;18.10;99.90;;;;;;7182764;19;2004844;-78
2023/04/19 10:36:00;;;;;;;14.50;9.83;;;17.90;99.90;;;;;;7284384;19;20539;-79
2023/04/19 10:38:37;;;;;;;13.60;9.63;;;18.00;99.90;;;;;;7279268;19;20202;-78
2023/04/19 10:41:04;;;;;;;14.60;9.80;;;19.50;99.90;;;;;;7284595;19;20189;-78
2023/04/19 10:43:34;;;;;;;14.23;9.33;;;20.20;99.90;;;;;;7283842;19;20949;-78
2023/04/19 10:46:12;;;;;;;12.93;8.90;;;19.90;99.90;;;;;;7283566;19;20203;-77
2023/04/19 10:48:59;;;;;;;11.83;8.47;;;19.50;99.90;;;;;;7284039;19;20255;-77
2023/04/19 10:51:37;;;;;;;13.33;7.80;;;19.40;99.90;;;;;;7181098;19;2006652;-77
2023/04/19 10:54:07;;;;;;;12.53;8.67;;;20.30;99.90;;;;;;7284556;19;20201;-79
2023/04/19 10:56:33;;;;;;;13.00;8.23;;;20.50;99.90;;;;;;7284034;19;20293;-78
2023/04/19 10:59:11;;;;;;;13.97;8.90;;;20.10;99.90;;;;;;7283392;19;20195;-78
2023/04/19 11:01:44;;;;;;;13.67;7.40;;;20.10;99.90;;;;;;7283814;19;20197;-78
2023/04/19 11:04:12;;;;;;;13.63;8.30;;;20.80;99.90;;;;;;7283914;19;20233;-79
2023/04/19 11:07:00;;;;;;;13.27;8.50;;;21.40;99.90;;;;;;7283982;19;20214;-78
2023/04/19 11:09:30;;;;;;;11.97;8.20;;;21.50;99.90;;;;;;7181305;19;2004741;-79
2023/04/19 11:12:01;;;;;;;12.60;8.20;;;21.80;99.90;;;;;;7285125;19;20187;-79
2023/04/19 11:14:31;;;;;;;11.93;7.70;;;22.20;99.90;;;;;;7283837;19;20192;-76
2023/04/19 11:16:57;;;;;;;10.83;7.23;;;22.60;99.90;;;;;;7284704;19;20538;-78
2023/04/19 11:19:23;;;;;;;9.83;7.13;;;23.80;99.90;;;;;;7283505;19;20188;-79
2023/04/19 11:21:49;;;;;;;12.13;7.13;;;23.00;99.90;;;;;;7282816;19;20192;-78
2023/04/19 11:24:17;;;;;;;9.43;6.67;;;21.70;99.90;;;;;;7304361;19;20580;-79
2023/04/19 11:26:44;;;;;;;12.03;6.93;;;21.10;99.90;;;;;;7282769;19;20184;-77
2023/04/19 11:29:11;;;;;;;10.07;7.00;;;20.60;99.90;;;;;;7282558;19;20184;-78
2023/04/19 11:31:37;;;;;;;11.13;6.93;;;20.30;99.90;;;;;;7283728;19;20655;-78
2023/04/19 11:34:03;;;;;;;14.33;6.83;;;20.00;99.90;;;;;;7283625;19;20192;-78
2023/04/19 11:36:30;;;;;;;12.07;6.80;;;19.50;99.90;;;;;;7283854;19;20655;-78
2023/04/19 11:38:56;;;;;;;13.53;5.90;;;19.20;99.90;;;;;;7283570;19;20192;-77
2023/04/19 11:41:22;;;;;;;10.80;6.70;;;20.60;99.90;;;;;;7284311;19;20650;-78
2023/04/19 11:43:48;;;;;;;12.47;7.13;;;20.40;99.90;;;;;;7285153;19;20214;-78
2023/04/19 11:46:14;;;;;;;13.97;7.93;;;20.00;99.90;;;;;;7304752;19;20190;-79
2023/04/19 11:48:53;;;;;;;14.50;8.00;;;19.50;99.90;;;;;;7284102;19;20201;-79
2023/04/19 11:51:19;;;;;;;12.77;8.47;;;19.30;99.90;;;;;;7260573;19;20191;-78
2023/04/19 11:53:45;;;;;;;14.07;8.63;;;18.80;99.90;;;;;;7305231;19;20272;-79
2023/04/19 11:56:11;;;;;;;17.87;9.43;;;18.40;99.90;;;;;;7283807;19;20193;-79
2023/04/19 11:58:50;;;;;;;14.33;8.23;;;18.20;99.90;;;;;;7282293;19;20224;-79
2023/04/19 12:01:20;;;;;;;12.53;8.50;;;18.60;99.90;;;;;;7289056;19;20264;-78
2023/04/19 12:03:47;;;;;;;16.93;8.50;;;19.10;99.90;;;;;;7289866;19;20711;-78
2023/04/19 12:06:18;;;;;;;14.27;8.67;;;18.70;99.90;;;;;;7289805;19;20572;-78
2023/04/19 12:08:48;;;;;;;13.67;7.97;;;19.20;99.90;;;;;;7289772;19;20262;-78
2023/04/19 12:11:15;;;;;;;12.27;8.13;;;19.50;99.90;;;;;;7289267;19;20213;-78
2023/04/19 12:13:43;;;;;;;13.47;7.90;;;19.60;99.90;;;;;;7289311;19;20191;-78
2023/04/19 12:16:09;;;;;;;12.57;7.80;;;19.60;99.90;;;;;;7288297;19;21767;-78
2023/04/19 12:18:49;;;;;;;11.70;7.70;;;19.60;99.90;;;;;;7290825;19;20676;-79
2023/04/19 12:21:27;;;;;;;11.57;7.90;;;19.40;99.90;;;;;;7288122;19;20207;-78
2023/04/19 12:23:57;;;;;;;13.37;8.40;;;19.10;99.90;;;;;;7185407;19;2006409;-79
2023/04/19 12:26:24;;;;;;;14.37;8.40;;;18.60;99.90;;;;;;7289837;19;20195;-78
2023/04/19 12:28:49;;;;;;;13.13;8.50;;;18.60;99.90;;;;;;7288395;19;20715;-78
2023/04/19 12:31:15;;;;;;;13.47;8.10;;;19.00;99.90;;;;;;7310045;19;20185;-78